KCIC/CIC METAR and TAF weather

Enter ICAO airport designator
Station Type Date Time Source
KCIC METAR 2022/12/04 02:47 UTC NOAA

KCIC 040247Z 00000KT 5SM BR RA OVC003 06/06 A2995


Station Type Date Time Source
KCIC Decoded METAR 2022/12/04 02:47 UTC NOAA

Chico Municipal , CA, United States (KCIC) 39-48N 121-51W
Dec 03, 2022 - 09:47 PM EST / 2022.12.04 0247 UTC
Wind: Calm:0
Visibility: 5 mile(s):0
Sky conditions: overcast
Weather: mist; rain
Temperature: 42 F (6 C)
Dew Point: 42 F (6 C)
Relative Humidity: 100%
Pressure (altimeter): 29.95 in. Hg (1014 hPa)
ob: KCIC 040247Z 00000KT 5SM BR RA OVC003 06/06 A2995
cycle: 3

Station Type Date Time Source
KCIC TAF UTC NOAA

Error!

Example: see airport list